Pagrindinis puslapis
METAR-TAF:

METAR-TAF

Oro uostai :

Davidas, Panama

platuma: 08-24N, ilguma: 082-25W, Aukštis: 29 m

Dabartinis oras

Ataskaita buvo paskelbta 24 minutes, ne 20:00 UTC
Vėjas 7 kt iš Pietų/Pietvakarių
Temperatūra 28°C
Drėgmė 79%
Slėgis 1010 hPa
Matomumas 10 km arba daugiau
Išsisklaidę debesys ne aukštis 1500 ft, Liūtiniai kamuoliniai debesys.
Su prošvaistėmis ne aukštis 8000 ft

METAR: MPDA 222000Z 21007KT 9999 SCT015CB BKN080 28/24 Q1010

Laikas: 15:24 (20:24 UTC)

Prognozė

Ataskaita buvo paskelbta 3 valandos ir 24 minutes, ne 17:00 UTC
Prognozė galioja nuo 22 metu 18 UTC su 23 metu 06 UTC
Vėjas 6 kt iš Pietvakarių
Matomumas 10 km arba daugiau
Išsisklaidę debesys ne aukštis 1800 ft
Išsisklaidę debesys ne aukštis 9000 ft
Tikimybė 30%
nuo 22 metu 20 UTC su 22 metu 24 UTC
Matomumas: 6000 m
Išsisklaidę debesys ne aukštis 1600 ft, Liūtiniai kamuoliniai debesys.
Su prošvaistėmis ne aukštis 9000 ft
perkūnija, lietus

TAF: MPDA 221700Z 2218/2306 22006KT 9999 SCT018 SCT090 PROB30 2220/2224 6000 TSRA SCT016CB BKN090

Orai ataskaitas ir orų prognozės (METAR, TAF).

turimą stotys yra geltonos ir raudonos taškus žemėlapyje.

Perkelti pele per norėdami pamatyti stoties vardą.

Tada spustelėkite, norėdami matyti oro stebėjimo ir prognozės.

Norėdami pakeisti žemėlapį: spustelėkite ant žalios mygtukų su juodo kryžiaus žemyn,; žalią mygtuką su brūkšneliu, jei norite nutolinti; arba žalių rodyklių gretimoms žemėlapius.


METAR-TAF: